createdAt,value
2018-08-25T00:00:17.067Z,99166.74
2018-08-25T00:01:53.649Z,99164.53
2018-08-25T00:03:29.054Z,99161.38
2018-08-25T00:05:04.556Z,99159.23
2018-08-25T00:06:40.000Z,99156.08
2018-08-25T00:08:15.422Z,99155.09
2018-08-25T00:09:50.880Z,99157.72
2018-08-25T00:11:26.407Z,99159.12
2018-08-25T00:13:01.883Z,99166.77
2018-08-25T00:14:37.360Z,99171.23
2018-08-25T00:16:12.848Z,99173.35
2018-08-25T00:17:48.409Z,99179.20
2018-08-25T00:19:23.933Z,99177.92
2018-08-25T00:20:59.407Z,99179.42
2018-08-25T00:22:34.907Z,99169.27
2018-08-25T00:24:10.355Z,99177.08
2018-08-25T00:25:45.820Z,99176.88
2018-08-25T00:27:21.335Z,99178.02
2018-08-25T00:28:56.798Z,99177.11
2018-08-25T00:30:37.662Z,99176.73
2018-08-25T00:32:13.105Z,99178.20
2018-08-25T00:33:48.616Z,99174.90
2018-08-25T00:35:24.151Z,99169.72
2018-08-25T00:36:59.601Z,99175.25
2018-08-25T00:38:35.149Z,99174.31
2018-08-25T00:40:10.664Z,99178.64
2018-08-25T00:41:46.402Z,99176.94
2018-08-25T00:43:21.875Z,99178.73
2018-08-25T00:44:57.552Z,99174.45
2018-08-25T00:46:33.092Z,99163.73
2018-08-25T00:48:08.529Z,99163.37
2018-08-25T00:49:44.025Z,99162.00
2018-08-25T00:51:19.565Z,99155.55
2018-08-25T00:52:55.044Z,99162.54
2018-08-25T00:54:30.485Z,99161.20
2018-08-25T00:56:06.330Z,99159.20
2018-08-25T00:57:41.753Z,99160.14
2018-08-25T00:59:17.312Z,99168.11
2018-08-25T01:00:53.191Z,99176.45
2018-08-25T01:02:28.708Z,99181.05
2018-08-25T01:04:04.188Z,99188.06
2018-08-25T01:05:39.689Z,99179.08
2018-08-25T01:07:15.519Z,99179.70
2018-08-25T01:08:51.002Z,99179.59
2018-08-25T01:10:26.458Z,99174.54
2018-08-25T01:12:01.929Z,99167.09
2018-08-25T01:13:37.530Z,99175.08
2018-08-25T01:15:13.024Z,99174.20
2018-08-25T01:16:48.469Z,99170.39
2018-08-25T01:18:24.008Z,99171.56
2018-08-25T01:19:59.479Z,99168.19
2018-08-25T01:21:35.023Z,99170.70
2018-08-25T01:23:10.874Z,99167.69
2018-08-25T01:24:46.358Z,99169.78
2018-08-25T01:26:21.816Z,99168.44
2018-08-25T01:27:57.572Z,99163.41
2018-08-25T01:29:33.074Z,99169.02
2018-08-25T01:31:08.598Z,99160.69
2018-08-25T01:32:44.039Z,99152.03
2018-08-25T01:34:19.562Z,99137.52
2018-08-25T01:35:55.038Z,99135.94
2018-08-25T01:37:30.510Z,99136.63
2018-08-25T01:39:08.148Z,99143.39
2018-08-25T01:40:43.656Z,99140.63
2018-08-25T01:42:20.047Z,99143.84
2018-08-25T01:43:56.313Z,99143.73
2018-08-25T01:45:31.785Z,99146.07
2018-08-25T01:47:07.439Z,99140.08
2018-08-25T01:48:42.856Z,99137.17
2018-08-25T01:50:18.416Z,99132.73
2018-08-25T01:51:53.894Z,99128.69
2018-08-25T01:53:29.377Z,99124.22
2018-08-25T01:55:05.850Z,99124.44
2018-08-25T01:56:41.338Z,99129.12
2018-08-25T01:58:23.133Z,99124.18
2018-08-25T01:59:58.604Z,99108.99
2018-08-25T02:01:34.054Z,99101.62
2018-08-25T02:03:09.575Z,99090.58
2018-08-25T02:04:45.799Z,99094.27
2018-08-25T02:06:21.294Z,99096.97
2018-08-25T02:07:57.216Z,99110.22
2018-08-25T02:09:32.710Z,99120.17
2018-08-25T02:11:08.175Z,99117.62
2018-08-25T02:12:44.356Z,99110.91
2018-08-25T02:14:19.809Z,99101.64
2018-08-25T02:15:59.170Z,99102.04
2018-08-25T02:17:35.520Z,99102.25
2018-08-25T02:19:10.981Z,99098.23
2018-08-25T02:20:46.444Z,99097.12
2018-08-25T02:22:22.262Z,99105.29
2018-08-25T02:23:58.201Z,99098.48
2018-08-25T02:25:33.656Z,99097.94
2018-08-25T02:27:09.746Z,99107.11
2018-08-25T02:28:45.305Z,99101.77
2018-08-25T02:30:20.776Z,99106.08
2018-08-25T02:31:56.253Z,99097.77
2018-08-25T02:33:32.225Z,99099.06
2018-08-25T02:35:07.736Z,99095.10
2018-08-25T02:36:43.430Z,99090.47
2018-08-25T02:38:19.647Z,99086.32
2018-08-25T02:39:55.496Z,99025.34
2018-08-25T02:41:31.034Z,99073.70
2018-08-25T02:43:06.512Z,99072.75
2018-08-25T02:44:42.698Z,99073.34
2018-08-25T02:46:18.188Z,99069.20
2018-08-25T02:47:54.736Z,99069.97
2018-08-25T02:49:30.268Z,99068.79
2018-08-25T02:51:05.783Z,99065.21
2018-08-25T02:52:42.351Z,99064.42
2018-08-25T02:54:17.805Z,99062.94
2018-08-25T02:55:53.283Z,99069.16
2018-08-25T02:57:28.777Z,99069.98
2018-08-25T02:59:04.378Z,99065.36
2018-08-25T03:00:39.930Z,99065.11
2018-08-25T03:02:15.405Z,99061.02
2018-08-25T03:03:50.919Z,99057.30
2018-08-25T03:05:26.400Z,99060.17
2018-08-25T03:07:02.018Z,99057.22
2018-08-25T03:08:37.465Z,99056.19
2018-08-25T03:10:13.415Z,99057.36
2018-08-25T03:11:48.898Z,99059.43
2018-08-25T03:13:24.366Z,99056.66
2018-08-25T03:14:59.805Z,99057.22
2018-08-25T03:16:35.372Z,99052.62
2018-08-25T03:18:10.845Z,99051.70
2018-08-25T03:19:46.737Z,99048.47
2018-08-25T03:21:22.218Z,99052.45
2018-08-25T03:22:57.677Z,99053.11
2018-08-25T03:24:33.134Z,99051.89
2018-08-25T03:26:08.650Z,99058.70
2018-08-25T03:27:44.157Z,99061.21
2018-08-25T03:29:19.643Z,99064.56
2018-08-25T03:30:55.646Z,99062.05
2018-08-25T03:32:31.336Z,99069.27
2018-08-25T03:34:06.928Z,99075.23
2018-08-25T03:35:42.526Z,99067.89
2018-08-25T03:37:17.980Z,99061.56
2018-08-25T03:38:53.526Z,99065.89
2018-08-25T03:40:28.964Z,99059.23
2018-08-25T03:42:04.477Z,99064.95
2018-08-25T03:43:39.913Z,99072.28
2018-08-25T03:45:15.428Z,99076.09
2018-08-25T03:46:50.906Z,99070.45
2018-08-25T03:48:26.400Z,99068.28
2018-08-25T03:50:01.905Z,99071.29
2018-08-25T03:51:37.709Z,99066.62
2018-08-25T03:53:13.205Z,99059.33
2018-08-25T03:54:48.744Z,99060.16
2018-08-25T03:56:24.208Z,99059.00
2018-08-25T03:57:59.666Z,99021.31
2018-08-25T03:59:35.752Z,99064.31
2018-08-25T04:01:11.561Z,99062.48
2018-08-25T04:02:47.184Z,99063.67
2018-08-25T04:04:22.650Z,99066.66
2018-08-25T04:05:58.836Z,99062.99
2018-08-25T04:07:34.678Z,99070.62
2018-08-25T04:09:12.202Z,99070.25
2018-08-25T04:10:47.645Z,99021.77
2018-08-25T04:12:23.133Z,99064.16
2018-08-25T04:13:58.608Z,99016.95
2018-08-25T04:15:35.095Z,99067.80
2018-08-25T04:17:11.287Z,99067.80
2018-08-25T04:18:46.889Z,99071.28
2018-08-25T04:20:22.324Z,99072.45
2018-08-25T04:21:57.773Z,99072.28
2018-08-25T04:23:33.276Z,99076.93
2018-08-25T04:25:08.777Z,99074.58
2018-08-25T04:26:44.212Z,99076.45
2018-08-25T04:28:19.721Z,99067.97
2018-08-25T04:29:56.010Z,99068.14
2018-08-25T04:31:31.486Z,99068.98
2018-08-25T04:33:06.985Z,99070.25
2018-08-25T04:34:42.484Z,99067.94
2018-08-25T04:36:18.061Z,99068.61
2018-08-25T04:37:53.535Z,99073.13
2018-08-25T04:39:29.053Z,99068.16
2018-08-25T04:41:04.548Z,99073.13
2018-08-25T04:42:39.951Z,99070.41
2018-08-25T04:44:15.461Z,99074.75
2018-08-25T04:45:50.937Z,99073.78
2018-08-25T04:47:26.428Z,99068.47
2018-08-25T04:49:01.968Z,99075.95
2018-08-25T04:50:37.425Z,99074.28
2018-08-25T04:52:12.885Z,99073.95
2018-08-25T04:53:48.407Z,99069.15
2018-08-25T04:55:23.884Z,99072.96
2018-08-25T04:56:59.364Z,99068.47
2018-08-25T04:58:34.833Z,99071.95
2018-08-25T05:00:10.323Z,99071.94
2018-08-25T05:01:45.887Z,99071.30
2018-08-25T05:03:21.330Z,99070.95
2018-08-25T05:04:56.839Z,99069.63
2018-08-25T05:06:32.291Z,99070.80
2018-08-25T05:08:09.028Z,99071.63
2018-08-25T05:09:44.565Z,99068.31
2018-08-25T05:11:20.012Z,99068.80
2018-08-25T05:12:55.468Z,99072.94
2018-08-25T05:14:30.925Z,99084.23
2018-08-25T05:16:06.369Z,99087.73
2018-08-25T05:17:41.822Z,99086.75
2018-08-25T05:19:17.318Z,99085.06
2018-08-25T05:20:52.879Z,99079.77
2018-08-25T05:22:28.436Z,99080.93
2018-08-25T05:24:04.361Z,99078.08
2018-08-25T05:25:39.826Z,99076.62
2018-08-25T05:27:15.293Z,99074.27
2018-08-25T05:28:50.910Z,99072.25
2018-08-25T05:30:26.396Z,99079.21
2018-08-25T05:32:01.850Z,99077.84
2018-08-25T05:33:37.367Z,99074.92
2018-08-25T05:35:12.843Z,99075.77
2018-08-25T05:36:48.342Z,99071.43
2018-08-25T05:38:23.828Z,99077.59
2018-08-25T05:39:59.277Z,99083.23
2018-08-25T05:41:34.782Z,99083.58
2018-08-25T05:43:10.245Z,99084.23
2018-08-25T05:44:45.710Z,99092.71
2018-08-25T05:46:21.295Z,99093.22
2018-08-25T05:47:56.825Z,99087.05
2018-08-25T05:49:32.262Z,99086.92
2018-08-25T05:51:07.728Z,99087.20
2018-08-25T05:52:43.162Z,99080.03
2018-08-25T05:54:18.676Z,99079.55
2018-08-25T05:55:54.198Z,99082.02
2018-08-25T05:57:29.709Z,99081.66
2018-08-25T05:59:05.178Z,99064.41
2018-08-25T06:00:40.629Z,99070.58
2018-08-25T06:02:16.120Z,99068.75
2018-08-25T06:03:54.756Z,99067.19
2018-08-25T06:05:30.237Z,99072.11
2018-08-25T06:07:05.704Z,99067.06
2018-08-25T06:08:41.192Z,99065.61
2018-08-25T06:10:16.666Z,99070.59
2018-08-25T06:11:54.828Z,99073.38
2018-08-25T06:13:30.335Z,99075.20
2018-08-25T06:15:06.079Z,99076.88
2018-08-25T06:16:41.528Z,99074.36
2018-08-25T06:18:17.001Z,99068.33
2018-08-25T06:19:52.760Z,99065.14
2018-08-25T06:21:28.261Z,99067.70
2018-08-25T06:23:03.765Z,99069.19
2018-08-25T06:24:39.284Z,99067.44
2018-08-25T06:26:14.781Z,99067.85
2018-08-25T06:27:50.359Z,99073.36
2018-08-25T06:29:26.880Z,99065.72
2018-08-25T06:31:02.511Z,99068.92
2018-08-25T06:32:37.984Z,99070.73
2018-08-25T06:34:13.496Z,99068.72
2018-08-25T06:35:49.024Z,99066.55
2018-08-25T06:37:24.496Z,99066.47
2018-08-25T06:39:00.161Z,99062.08
2018-08-25T06:40:35.664Z,99065.33
2018-08-25T06:42:11.303Z,99062.20
2018-08-25T06:43:46.809Z,99056.38
2018-08-25T06:45:22.441Z,99063.48
2018-08-25T06:46:57.957Z,99065.70
2018-08-25T06:48:33.778Z,99065.70
2018-08-25T06:50:09.257Z,99071.57
2018-08-25T06:51:44.724Z,99059.38
2018-08-25T06:53:20.320Z,99062.55
2018-08-25T06:54:56.664Z,99057.14
2018-08-25T06:56:32.518Z,99057.34
2018-08-25T06:58:08.036Z,99062.98
2018-08-25T06:59:43.533Z,99064.45
2018-08-25T07:01:19.005Z,99068.09
2018-08-25T07:02:54.522Z,99072.78
2018-08-25T07:04:29.998Z,99064.63
2018-08-25T07:06:05.565Z,99072.73
2018-08-25T07:07:41.079Z,99071.45
2018-08-25T07:09:16.554Z,99068.37
2018-08-25T07:10:52.054Z,99071.09
2018-08-25T07:12:27.515Z,99077.71
2018-08-25T07:14:03.008Z,99074.91
2018-08-25T07:15:38.505Z,99074.98
2018-08-25T07:17:13.995Z,99077.27
2018-08-25T07:18:49.806Z,99076.08
2018-08-25T07:20:25.424Z,99082.69
2018-08-25T07:22:00.883Z,99078.55
2018-08-25T07:23:36.988Z,99079.84
2018-08-25T07:25:12.461Z,99080.91
2018-08-25T07:26:47.920Z,99080.81
2018-08-25T07:28:23.441Z,99078.80
2018-08-25T07:29:58.955Z,99076.73
2018-08-25T07:31:34.492Z,99072.59
2018-08-25T07:33:09.927Z,99073.85
2018-08-25T07:34:45.417Z,99071.59
2018-08-25T07:36:20.846Z,99069.30
2018-08-25T07:37:56.349Z,99065.20
2018-08-25T07:39:32.409Z,99069.16
2018-08-25T07:41:07.898Z,99074.06
2018-08-25T07:42:43.389Z,99069.94
2018-08-25T07:44:20.362Z,99072.17
2018-08-25T07:45:55.884Z,99068.74
2018-08-25T07:47:31.387Z,99072.53
2018-08-25T07:49:06.842Z,99067.71
2018-08-25T07:50:42.321Z,99075.92
2018-08-25T07:52:17.825Z,99076.00
2018-08-25T07:53:53.769Z,99074.58
2018-08-25T07:55:29.454Z,99068.53
2018-08-25T07:57:05.764Z,99075.72
2018-08-25T07:58:41.549Z,99078.75
2018-08-25T08:00:17.101Z,99072.75
2018-08-25T08:01:52.551Z,99069.01
2018-08-25T08:03:28.025Z,99070.47
2018-08-25T08:05:03.536Z,99073.88
2018-08-25T08:06:38.992Z,99067.70
2018-08-25T08:08:14.448Z,99065.98
2018-08-25T08:09:49.957Z,99056.22
2018-08-25T08:11:25.417Z,99058.60
2018-08-25T08:13:00.879Z,99055.27
2018-08-25T08:14:36.388Z,99056.58
2018-08-25T08:16:12.319Z,99038.66
2018-08-25T08:17:47.800Z,99047.33
2018-08-25T08:19:23.325Z,99037.60
2018-08-25T08:20:58.868Z,99033.87
2018-08-25T08:22:34.386Z,99039.49
2018-08-25T08:24:09.937Z,99040.42
2018-08-25T08:25:45.577Z,99035.41
2018-08-25T08:27:21.107Z,99041.97
2018-08-25T08:28:56.796Z,99037.51
2018-08-25T08:30:32.277Z,99032.17
2018-08-25T08:32:14.515Z,99039.66
2018-08-25T08:33:50.025Z,99030.95
2018-08-25T08:35:25.767Z,99045.15
2018-08-25T08:37:01.229Z,99048.05
2018-08-25T08:38:38.078Z,99039.00
2018-08-25T08:40:13.602Z,99040.61
2018-08-25T08:41:49.549Z,99043.36
2018-08-25T08:43:26.310Z,99050.11
2018-08-25T08:45:01.855Z,99055.97
2018-08-25T08:46:37.821Z,99055.91
2018-08-25T08:48:13.958Z,99062.78
2018-08-25T08:49:49.488Z,99061.55
2018-08-25T08:51:25.629Z,99056.99
2018-08-25T08:53:01.625Z,99064.96
2018-08-25T08:54:37.149Z,99065.91
2018-08-25T08:56:12.667Z,99064.72
2018-08-25T08:57:48.154Z,99056.11
2018-08-25T08:59:23.696Z,99055.48
2018-08-25T09:00:59.248Z,99049.30
2018-08-25T09:02:34.784Z,99052.73
2018-08-25T09:04:10.244Z,99044.83
2018-08-25T09:05:45.713Z,99054.09
2018-08-25T09:07:21.363Z,99047.19
2018-08-25T09:08:56.936Z,99042.23
2018-08-25T09:10:32.509Z,98998.07
2018-08-25T09:12:07.978Z,99046.78
2018-08-25T09:13:43.549Z,99046.78
2018-08-25T09:15:19.496Z,99047.52
2018-08-25T09:16:54.969Z,99044.66
2018-08-25T09:18:30.521Z,99056.61
2018-08-25T09:20:06.539Z,99047.69
2018-08-25T09:21:42.044Z,99047.52
2018-08-25T09:23:17.484Z,99046.04
2018-08-25T09:24:52.961Z,99046.14
2018-08-25T09:26:28.430Z,99047.07
2018-08-25T09:28:03.904Z,99041.20
2018-08-25T09:29:40.411Z,99045.12
2018-08-25T09:31:16.276Z,99049.30
2018-08-25T09:32:51.740Z,99055.13
2018-08-25T09:34:27.223Z,99040.92
2018-08-25T09:36:03.144Z,99052.12
2018-08-25T09:37:38.591Z,99043.66
2018-08-25T09:39:14.165Z,99038.64
2018-08-25T09:40:49.864Z,99036.55
2018-08-25T09:42:25.361Z,99034.48
2018-08-25T09:44:00.830Z,99040.62
2018-08-25T09:45:36.812Z,99045.05
2018-08-25T09:47:12.626Z,99054.30
2018-08-25T09:48:48.152Z,99048.78
2018-08-25T09:50:23.705Z,99052.49
2018-08-25T09:51:59.251Z,99052.69
2018-08-25T09:53:35.868Z,99051.69
2018-08-25T09:55:11.313Z,99055.01
2018-08-25T09:56:46.822Z,99057.23
2018-08-25T09:58:22.261Z,99053.09
2018-08-25T09:59:58.210Z,99052.95
2018-08-25T10:01:37.928Z,99047.59
2018-08-25T10:03:13.385Z,99055.37
2018-08-25T10:04:50.128Z,99049.84
2018-08-25T10:06:25.626Z,99056.41
2018-08-25T10:08:01.109Z,99059.77
2018-08-25T10:09:36.909Z,99058.72
2018-08-25T10:11:12.406Z,99045.69
2018-08-25T10:12:47.858Z,99050.03
2018-08-25T10:14:23.348Z,99045.20
2018-08-25T10:15:58.874Z,99038.75
2018-08-25T10:17:34.323Z,99033.50
2018-08-25T10:19:09.810Z,99040.80
2018-08-25T10:20:45.345Z,99040.14
2018-08-25T10:22:22.355Z,99041.55
2018-08-25T10:23:57.859Z,99039.85
2018-08-25T10:25:33.338Z,99039.17
2018-08-25T10:27:08.775Z,99039.02
2018-08-25T10:28:44.294Z,99041.84
2018-08-25T10:30:19.732Z,99038.13
2018-08-25T10:31:55.218Z,99038.80
2018-08-25T10:33:30.717Z,99048.01
2018-08-25T10:35:06.784Z,99044.15
2018-08-25T10:36:42.801Z,99039.70
2018-08-25T10:38:18.240Z,99051.28
2018-08-25T10:39:53.710Z,99034.01
2018-08-25T10:41:29.185Z,99031.49
2018-08-25T10:43:04.709Z,99041.94
2018-08-25T10:44:40.179Z,99037.19
2018-08-25T10:46:16.592Z,99048.45
2018-08-25T10:47:53.153Z,99045.30
2018-08-25T10:49:28.668Z,99038.63
2018-08-25T10:51:04.671Z,99040.06
2018-08-25T10:52:40.150Z,99044.08
2018-08-25T10:54:15.974Z,99045.42
2018-08-25T10:55:52.313Z,99049.47
2018-08-25T10:57:27.765Z,99047.31
2018-08-25T10:59:04.834Z,99056.46
2018-08-25T11:00:40.565Z,99054.55
2018-08-25T11:02:24.497Z,99059.14
2018-08-25T11:04:00.014Z,99066.23
2018-08-25T11:05:35.552Z,99057.63
2018-08-25T11:07:12.905Z,99065.59
2018-08-25T11:08:48.539Z,99062.63
2018-08-25T11:10:23.932Z,99065.38
2018-08-25T11:11:59.406Z,99064.94
2018-08-25T11:13:34.896Z,99063.31
2018-08-25T11:15:10.470Z,99072.94
2018-08-25T11:16:45.970Z,99070.48
2018-08-25T11:18:21.469Z,99068.72
2018-08-25T11:19:56.951Z,99067.84
2018-08-25T11:21:32.430Z,99063.39
2018-08-25T11:23:08.098Z,99068.66
2018-08-25T11:24:43.676Z,99069.41
2018-08-25T11:26:19.455Z,99066.02
2018-08-25T11:27:55.001Z,99070.75
2018-08-25T11:29:31.815Z,99068.77
2018-08-25T11:31:09.400Z,99060.84
2018-08-25T11:32:44.877Z,99063.80
2018-08-25T11:34:20.429Z,99064.77
2018-08-25T11:35:56.608Z,99065.47
2018-08-25T11:37:32.179Z,99067.12
2018-08-25T11:39:10.289Z,99061.02
2018-08-25T11:40:45.773Z,99060.36
2018-08-25T11:42:21.262Z,99067.56
2018-08-25T11:43:57.236Z,99068.83
2018-08-25T11:45:33.445Z,99064.65
2018-08-25T11:47:13.924Z,99066.92
2018-08-25T11:48:49.475Z,99072.89
2018-08-25T11:50:26.394Z,99068.08
2018-08-25T11:52:01.873Z,99062.48
2018-08-25T11:53:37.418Z,99066.82
2018-08-25T11:55:12.944Z,99058.57
2018-08-25T11:56:48.441Z,99058.95
2018-08-25T11:58:24.237Z,99060.61
2018-08-25T11:59:59.793Z,99063.00
2018-08-25T12:01:35.237Z,99069.63
2018-08-25T12:03:10.954Z,99060.29
2018-08-25T12:04:46.484Z,99055.26
2018-08-25T12:06:22.374Z,99062.69
2018-08-25T12:07:58.892Z,99060.78
2018-08-25T12:09:34.424Z,99056.43
2018-08-25T12:11:10.004Z,99052.04
2018-08-25T12:12:45.438Z,99049.72
2018-08-25T12:14:20.901Z,99041.77
2018-08-25T12:15:58.208Z,99043.05
2018-08-25T12:17:33.742Z,99049.02
2018-08-25T12:19:09.344Z,99049.61
2018-08-25T12:20:44.772Z,99052.67
2018-08-25T12:22:20.250Z,99046.36
2018-08-25T12:23:55.822Z,99041.33
2018-08-25T12:25:31.379Z,99050.52
2018-08-25T12:27:07.144Z,99051.45
2018-08-25T12:28:42.670Z,99036.75
2018-08-25T12:30:18.246Z,99050.98
2018-08-25T12:31:53.749Z,99046.11
2018-08-25T12:33:29.245Z,99035.45
2018-08-25T12:35:07.502Z,99033.64
2018-08-25T12:38:25.149Z,99024.29
2018-08-25T12:40:01.183Z,99029.64
2018-08-25T12:41:38.320Z,99032.47
2018-08-25T12:43:13.782Z,99041.09
2018-08-25T12:44:49.611Z,99035.86
2018-08-25T12:46:25.066Z,99046.23
2018-08-25T12:48:00.533Z,99046.90
2018-08-25T12:49:37.879Z,99032.70
2018-08-25T12:51:13.372Z,99030.91
2018-08-25T12:52:49.101Z,99031.98
2018-08-25T12:54:24.551Z,99026.65
2018-08-25T12:56:00.023Z,99031.10
2018-08-25T12:57:35.542Z,99033.50
2018-08-25T12:59:11.072Z,99029.86
2018-08-25T13:00:46.466Z,99038.09
2018-08-25T13:02:21.982Z,99038.50
2018-08-25T13:03:57.490Z,99040.40
2018-08-25T13:05:32.962Z,99030.07
2018-08-25T13:07:08.450Z,99036.34
2018-08-25T13:08:43.901Z,99029.03
2018-08-25T13:10:19.432Z,99033.48
2018-08-25T13:11:54.892Z,99036.15
2018-08-25T13:13:30.342Z,99031.73
2018-08-25T13:15:07.012Z,99024.98
2018-08-25T13:16:42.550Z,99025.34
2018-08-25T13:18:18.056Z,99031.16
2018-08-25T13:19:53.546Z,99026.89
2018-08-25T13:21:29.025Z,99029.16
2018-08-25T13:23:04.471Z,99030.73
2018-08-25T13:24:39.962Z,99032.98
2018-08-25T13:26:15.422Z,99032.41
2018-08-25T13:27:50.938Z,99048.10
2018-08-25T13:29:26.471Z,99038.88
2018-08-25T13:31:02.062Z,99038.51
2018-08-25T13:32:37.453Z,99037.53
2018-08-25T13:34:14.107Z,99027.63
2018-08-25T13:35:49.598Z,99031.86
2018-08-25T13:37:25.117Z,99026.36
2018-08-25T13:39:00.957Z,99017.80
2018-08-25T13:40:37.449Z,99026.59
2018-08-25T13:42:13.670Z,99023.13
2018-08-25T13:43:49.141Z,99019.01
2018-08-25T13:45:24.810Z,99028.69
2018-08-25T13:47:00.240Z,99026.47
2018-08-25T13:48:35.687Z,99029.52
2018-08-25T13:50:11.193Z,99033.77
2018-08-25T13:51:46.689Z,99028.67
2018-08-25T13:53:22.203Z,99036.20
2018-08-25T13:54:57.719Z,99034.17
2018-08-25T13:56:33.293Z,99037.45
2018-08-25T13:58:08.769Z,99046.34
2018-08-25T13:59:44.310Z,99044.36
2018-08-25T14:01:19.787Z,99039.85
2018-08-25T14:02:55.334Z,99038.77
2018-08-25T14:04:30.894Z,99028.59
2018-08-25T14:06:06.833Z,99038.16
2018-08-25T14:07:42.287Z,99035.41
2018-08-25T14:09:17.802Z,99047.58
2018-08-25T14:10:53.305Z,99041.12
2018-08-25T14:12:29.209Z,99044.30
2018-08-25T14:14:04.746Z,99043.68
2018-08-25T14:15:40.272Z,99037.30
2018-08-25T14:17:15.884Z,99049.55
2018-08-25T14:18:52.390Z,99044.53
2018-08-25T14:20:27.955Z,99049.45
2018-08-25T14:22:03.436Z,99058.92
2018-08-25T14:23:38.968Z,99045.63
2018-08-25T14:25:14.570Z,99044.66
2018-08-25T14:26:50.107Z,99038.17
2018-08-25T14:28:25.546Z,99043.66
2018-08-25T14:30:01.002Z,99042.11
2018-08-25T14:31:36.492Z,99041.22
2018-08-25T14:33:12.285Z,99040.55
2018-08-25T14:34:49.039Z,99041.66
2018-08-25T14:36:24.503Z,99036.88
2018-08-25T14:38:00.249Z,99041.44
2018-08-25T14:39:35.765Z,99045.09
2018-08-25T14:41:11.259Z,99050.48
2018-08-25T14:42:46.797Z,99043.94
2018-08-25T14:44:22.271Z,99041.50
2018-08-25T14:45:57.814Z,99044.60
2018-08-25T14:47:33.601Z,99045.54
2018-08-25T14:49:09.084Z,99048.97
2018-08-25T14:50:44.588Z,99040.02
2018-08-25T14:52:20.109Z,99038.73
2018-08-25T14:53:55.638Z,99040.62
2018-08-25T14:55:31.690Z,99047.73
2018-08-25T14:57:07.174Z,99040.98
2018-08-25T14:58:42.625Z,99055.59
2018-08-25T15:00:18.150Z,99053.41
2018-08-25T15:01:53.705Z,99045.78
2018-08-25T15:03:29.162Z,99047.45
2018-08-25T15:05:05.278Z,99047.55
2018-08-25T15:06:40.804Z,99048.60
2018-08-25T15:08:16.321Z,99048.63
2018-08-25T15:09:51.786Z,99048.05
2018-08-25T15:11:27.393Z,99041.73
2018-08-25T15:13:03.377Z,99039.31
2018-08-25T15:14:38.888Z,99055.72
2018-08-25T15:16:19.799Z,99055.06
2018-08-25T15:17:58.673Z,99053.02
2018-08-25T15:19:34.570Z,99055.09
2018-08-25T15:21:10.069Z,99056.42
2018-08-25T15:22:46.058Z,99058.02
2018-08-25T15:24:21.579Z,99053.42
2018-08-25T15:25:58.547Z,99060.16
2018-08-25T15:27:34.300Z,99060.86
2018-08-25T15:29:09.869Z,99060.11
2018-08-25T15:30:47.389Z,99054.44
2018-08-25T15:32:23.645Z,99051.87
2018-08-25T15:34:00.264Z,99055.44
2018-08-25T15:35:36.454Z,99059.86
2018-08-25T15:37:12.103Z,99057.50
2018-08-25T15:38:47.839Z,99051.61
2018-08-25T15:40:23.482Z,99061.13
2018-08-25T15:42:00.750Z,99059.86
2018-08-25T15:43:36.390Z,99064.47
2018-08-25T15:45:12.085Z,99066.07
2018-08-25T15:46:48.005Z,99069.33
2018-08-25T15:48:23.840Z,99069.83
2018-08-25T15:50:00.122Z,99066.97
2018-08-25T15:51:35.606Z,99067.27
2018-08-25T15:53:11.173Z,99067.80
2018-08-25T15:54:46.659Z,99063.62
2018-08-25T15:56:22.150Z,99064.51
2018-08-25T15:57:57.792Z,99070.75
2018-08-25T15:59:33.271Z,99077.66
2018-08-25T16:01:08.742Z,99073.42
2018-08-25T16:02:44.209Z,99073.11
2018-08-25T16:04:19.808Z,99078.29
2018-08-25T16:05:55.433Z,99088.47
2018-08-25T16:07:32.470Z,99083.77
2018-08-25T16:09:23.143Z,99084.57
2018-08-25T16:10:58.765Z,99082.80
2018-08-25T16:12:34.407Z,99077.66
2018-08-25T16:14:09.861Z,99082.38
2018-08-25T16:15:47.258Z,99084.11
2018-08-25T16:17:22.897Z,99079.58
2018-08-25T16:18:58.409Z,99078.80
2018-08-25T16:20:33.854Z,99080.67
2018-08-25T16:22:11.129Z,99077.31
2018-08-25T16:23:46.636Z,99081.75
2018-08-25T16:25:22.213Z,99091.87
2018-08-25T16:26:57.916Z,99088.56
2018-08-25T16:28:34.059Z,99079.03
2018-08-25T16:30:09.977Z,99096.67
2018-08-25T16:31:45.487Z,99097.05
2018-08-25T16:33:21.184Z,99098.58
2018-08-25T16:34:56.729Z,99102.45
2018-08-25T16:36:32.267Z,99109.53
2018-08-25T16:38:08.762Z,99110.73
2018-08-25T16:39:44.500Z,99109.66
2018-08-25T16:41:20.032Z,99119.14
2018-08-25T16:42:55.894Z,99113.02
2018-08-25T16:44:31.423Z,99112.16
2018-08-25T16:46:08.002Z,99114.30
2018-08-25T16:47:43.566Z,99119.77
2018-08-25T16:49:19.948Z,99123.37
2018-08-25T16:50:55.376Z,99117.95
2018-08-25T16:52:30.832Z,99121.34
2018-08-25T16:54:07.307Z,99112.25
2018-08-25T16:55:42.817Z,99112.52
2018-08-25T16:57:18.306Z,99117.67
2018-08-25T16:58:54.004Z,99118.13
2018-08-25T17:00:29.538Z,99118.84
2018-08-25T17:02:05.490Z,99121.39
2018-08-25T17:03:41.053Z,99118.80
2018-08-25T17:05:16.683Z,99111.86
2018-08-25T17:06:53.266Z,99113.20
2018-08-25T17:08:28.961Z,99111.33
2018-08-25T17:10:04.472Z,99111.61
2018-08-25T17:11:40.003Z,99113.32
2018-08-25T17:13:15.459Z,99112.38
2018-08-25T17:14:51.344Z,99115.28
2018-08-25T17:16:27.804Z,99112.33
2018-08-25T17:18:03.252Z,99112.22
2018-08-25T17:19:38.739Z,99114.09
2018-08-25T17:21:15.560Z,99119.35
2018-08-25T17:22:51.162Z,99116.74
2018-08-25T17:24:26.651Z,99127.35
2018-08-25T17:26:02.136Z,99125.31
2018-08-25T17:27:37.820Z,99126.13
2018-08-25T17:29:19.952Z,99124.45
2018-08-25T17:30:55.435Z,99131.72
2018-08-25T17:32:30.958Z,99130.35
2018-08-25T17:34:07.430Z,99132.97
2018-08-25T17:35:42.908Z,99133.67
2018-08-25T17:37:18.454Z,99143.17
2018-08-25T17:38:54.088Z,99142.30
2018-08-25T17:40:29.570Z,99146.91
2018-08-25T17:42:05.123Z,99145.95
2018-08-25T17:43:40.794Z,99142.03
2018-08-25T17:45:16.318Z,99147.17
2018-08-25T17:46:52.302Z,99150.22
2018-08-25T17:48:27.778Z,99151.93
2018-08-25T17:50:03.305Z,99152.09
2018-08-25T17:51:38.785Z,99152.42
2018-08-25T17:53:14.281Z,99149.72
2018-08-25T17:54:50.237Z,99156.11
2018-08-25T17:56:26.898Z,99152.27
2018-08-25T17:58:03.195Z,99135.52
2018-08-25T17:59:39.307Z,99162.55
2018-08-25T18:01:15.430Z,99163.24
2018-08-25T18:02:51.098Z,99166.55
2018-08-25T18:04:26.826Z,99167.95
2018-08-25T18:06:02.316Z,99177.45
2018-08-25T18:07:37.801Z,99173.64
2018-08-25T18:09:13.299Z,99180.94
2018-08-25T18:10:49.080Z,99182.93
2018-08-25T18:12:24.496Z,99181.59
2018-08-25T18:14:00.308Z,99186.76
2018-08-25T18:15:35.853Z,99186.94
2018-08-25T18:17:11.389Z,99194.41
2018-08-25T18:18:46.977Z,99193.73
2018-08-25T18:20:23.686Z,99195.23
2018-08-25T18:21:59.750Z,99198.05
2018-08-25T18:23:37.222Z,99200.03
2018-08-25T18:25:12.755Z,99203.53
2018-08-25T18:26:48.266Z,99216.80
2018-08-25T18:28:23.750Z,99214.44
2018-08-25T18:29:59.226Z,99218.43
2018-08-25T18:31:35.747Z,99218.89
2018-08-25T18:33:11.303Z,99219.73
2018-08-25T18:34:46.790Z,99223.02
2018-08-25T18:36:22.597Z,99223.30
2018-08-25T18:37:58.261Z,99230.42
2018-08-25T18:39:33.888Z,99230.52
2018-08-25T18:41:09.333Z,99237.47
2018-08-25T18:42:45.486Z,99234.03
2018-08-25T18:44:20.971Z,99235.48
2018-08-25T18:45:56.477Z,99238.02